Time;durP1;ratioP1;P1;durP2;ratioP2;P2;SDS_P1;SDS_P2;PMS_P1;PMS_P2;Temp;Humidity;BMP_temperature;BMP_pressure;BME280_temperature;BME280_humidity;BME280_pressure;Samples;Min_cycle;Max_cycle;Signal;HPM_P1;HPM_P2
2021/06/09 00:01:04;;;;;;;10.20;8.55;;;18.20;65.90;;;;;;5158898;27;20371;-81
2021/06/09 00:03:30;;;;;;;10.52;9.52;;;18.20;66.10;;;;;;5159136;27;20038;-80
2021/06/09 00:05:56;;;;;;;9.60;8.70;;;18.20;66.20;;;;;;5141595;27;20073;-80
2021/06/09 00:08:25;;;;;;;9.70;8.70;;;18.10;66.30;;;;;;5158326;27;20042;-81
2021/06/09 00:10:55;;;;;;;9.88;8.93;;;18.10;66.40;;;;;;5142179;27;20046;-80
2021/06/09 00:13:22;;;;;;;10.27;9.10;;;18.10;66.50;;;;;;5159473;27;20054;-82
2021/06/09 00:15:49;;;;;;;9.95;8.95;;;18.00;66.60;;;;;;5139842;27;20046;-81
2021/06/09 00:18:14;;;;;;;10.82;9.73;;;18.00;66.70;;;;;;5136338;27;20144;-82
2021/06/09 00:20:41;;;;;;;9.65;8.73;;;18.00;66.90;;;;;;5121365;27;20042;-80
2021/06/09 00:23:09;;;;;;;10.80;9.13;;;18.00;67.00;;;;;;5172367;27;20042;-81
2021/06/09 00:25:35;;;;;;;12.13;10.05;;;17.90;67.10;;;;;;5158045;27;20034;-82
2021/06/09 00:28:01;;;;;;;12.30;10.38;;;17.90;67.20;;;;;;5141094;27;20073;-80
2021/06/09 00:30:29;;;;;;;10.23;9.25;;;17.90;67.40;;;;;;5158116;27;20050;-81
2021/06/09 00:32:56;;;;;;;11.23;10.07;;;17.80;67.50;;;;;;5159088;27;20102;-80
2021/06/09 00:35:22;;;;;;;12.05;9.48;;;17.80;67.60;;;;;;5123550;27;20065;-82
2021/06/09 00:37:48;;;;;;;14.07;11.93;;;17.80;67.80;;;;;;5158993;27;20067;-80
2021/06/09 00:40:14;;;;;;;15.98;14.23;;;17.80;68.00;;;;;;5158437;27;20066;-83
2021/06/09 00:42:40;;;;;;;14.00;12.50;;;17.80;68.00;;;;;;5158384;27;20463;-82
2021/06/09 00:45:07;;;;;;;14.23;12.55;;;17.70;68.00;;;;;;5141197;27;20084;-81
2021/06/09 00:47:51;;;;;;;12.95;11.55;;;17.70;68.20;;;;;;5130050;27;20050;-80
2021/06/09 00:50:17;;;;;;;14.00;11.27;;;17.70;68.30;;;;;;5158247;27;20431;-82
2021/06/09 00:52:43;;;;;;;11.93;10.68;;;17.70;68.40;;;;;;5124130;27;20117;-80
2021/06/09 00:55:12;;;;;;;13.52;11.70;;;17.60;68.50;;;;;;5175548;27;20068;-81
2021/06/09 00:57:39;;;;;;;12.35;11.15;;;17.60;68.60;;;;;;5140940;27;20057;-80
2021/06/09 01:00:11;;;;;;;11.85;10.65;;;17.60;68.70;;;;;;5141127;27;20087;-81
2021/06/09 01:02:37;;;;;;;12.63;11.32;;;17.60;68.90;;;;;;5140665;27;20066;-80
2021/06/09 01:05:04;;;;;;;13.38;11.40;;;17.50;68.90;;;;;;5124315;27;20053;-79
2021/06/09 01:07:38;;;;;;;13.25;11.90;;;17.50;69.10;;;;;;5143286;27;20034;-80
2021/06/09 01:10:06;;;;;;;14.38;12.88;;;17.50;69.20;;;;;;5124110;27;20451;-80
2021/06/09 01:12:32;;;;;;;13.55;12.15;;;17.50;69.30;;;;;;5171403;27;20117;-81
2021/06/09 01:14:59;;;;;;;12.95;11.65;;;17.40;69.40;;;;;;5137939;27;20039;-81
2021/06/09 01:17:26;;;;;;;12.85;11.52;;;17.40;69.50;;;;;;5136641;27;20034;-81
2021/06/09 01:19:52;;;;;;;13.35;12.00;;;17.40;69.60;;;;;;5137987;27;20046;-81
2021/06/09 01:22:17;;;;;;;12.50;11.35;;;17.40;69.80;;;;;;5137074;27;20546;-83
2021/06/09 01:24:43;;;;;;;12.88;11.50;;;17.40;69.90;;;;;;5136829;27;20039;-80
2021/06/09 01:27:09;;;;;;;14.32;12.35;;;17.30;70.00;;;;;;5154893;27;20045;-81
2021/06/09 01:29:36;;;;;;;13.35;11.95;;;17.30;70.00;;;;;;5172574;27;20061;-81
2021/06/09 01:32:02;;;;;;;13.98;12.18;;;17.30;70.20;;;;;;5173594;27;20050;-80
2021/06/09 01:34:30;;;;;;;13.82;12.45;;;17.30;70.30;;;;;;5136999;27;20070;-81
2021/06/09 01:36:56;;;;;;;13.75;12.05;;;17.30;70.30;;;;;;5103399;27;20099;-80
2021/06/09 01:39:22;;;;;;;12.82;11.60;;;17.20;70.40;;;;;;5137096;27;20070;-85
2021/06/09 01:41:49;;;;;;;13.90;12.45;;;17.20;70.50;;;;;;5137052;27;20140;-80
2021/06/09 01:44:39;;;;;;;13.88;12.40;;;17.20;70.60;;;;;;5115765;27;20478;-81
2021/06/09 01:47:04;;;;;;;12.85;11.55;;;17.20;70.70;;;;;;5139757;27;20133;-79
2021/06/09 01:49:30;;;;;;;14.05;12.55;;;17.10;70.80;;;;;;5142365;27;20083;-80
2021/06/09 01:51:56;;;;;;;14.95;13.48;;;17.10;70.90;;;;;;5124353;27;20065;-81
2021/06/09 01:54:23;;;;;;;15.40;13.15;;;17.10;71.00;;;;;;5140824;27;20478;-84
2021/06/09 01:56:50;;;;;;;14.32;12.82;;;17.10;71.20;;;;;;5141086;27;20045;-82
2021/06/09 01:59:17;;;;;;;14.80;13.35;;;17.10;71.40;;;;;;5141268;27;20042;-80
2021/06/09 02:01:44;;;;;;;14.57;13.07;;;17.00;71.40;;;;;;5139676;27;20065;-80
2021/06/09 02:04:10;;;;;;;15.60;13.93;;;17.00;71.50;;;;;;5158125;27;20090;-81
2021/06/09 02:06:52;;;;;;;15.10;13.57;;;17.00;71.60;;;;;;5144650;27;20042;-81
2021/06/09 02:09:38;;;;;;;15.52;13.68;;;17.00;71.80;;;;;;5114663;27;20399;-81
2021/06/09 02:12:05;;;;;;;14.85;13.35;;;16.90;71.80;;;;;;5143437;27;20511;-81
2021/06/09 02:14:31;;;;;;;16.10;14.50;;;16.90;71.90;;;;;;5140698;27;20046;-82
2021/06/09 02:16:57;;;;;;;15.60;13.90;;;16.90;72.00;;;;;;5138650;27;20042;-81
2021/06/09 02:19:23;;;;;;;16.08;14.48;;;16.90;72.20;;;;;;5105255;27;20130;-80
2021/06/09 02:21:49;;;;;;;17.25;15.57;;;16.90;72.40;;;;;;5104279;27;20046;-80
2021/06/09 02:24:15;;;;;;;16.40;14.70;;;16.90;72.40;;;;;;5154408;27;20402;-81
2021/06/09 02:26:41;;;;;;;17.17;15.48;;;16.90;72.50;;;;;;5139655;27;20038;-80
2021/06/09 02:29:08;;;;;;;16.83;15.13;;;16.80;72.70;;;;;;5140802;27;20042;-80
2021/06/09 02:31:38;;;;;;;16.77;14.90;;;16.80;72.90;;;;;;5157008;27;20046;-81
2021/06/09 02:34:06;;;;;;;16.25;14.65;;;16.80;72.90;;;;;;5141311;27;20046;-80
2021/06/09 02:36:32;;;;;;;18.27;16.10;;;16.80;73.10;;;;;;5122765;27;20038;-81
2021/06/09 02:38:57;;;;;;;18.15;16.35;;;16.80;73.00;;;;;;5114840;27;20392;-79
2021/06/09 02:41:23;;;;;;;17.13;15.32;;;16.80;73.10;;;;;;5086986;27;20053;-81
2021/06/09 02:43:49;;;;;;;16.67;14.90;;;16.70;73.20;;;;;;5119511;27;20174;-81
2021/06/09 02:46:25;;;;;;;17.55;15.82;;;16.80;73.40;;;;;;5119372;27;20042;-80
2021/06/09 02:49:00;;;;;;;18.05;16.13;;;16.70;73.50;;;;;;5136100;27;20039;-81
2021/06/09 02:51:36;;;;;;;17.17;15.43;;;16.70;73.60;;;;;;5136953;27;20175;-81
2021/06/09 02:54:33;;;;;;;18.60;16.35;;;16.70;73.60;;;;;;5120260;27;20076;-81
2021/06/09 02:57:21;;;;;;;18.05;15.98;;;16.70;73.60;;;;;;5127548;27;20261;-81
2021/06/09 03:00:07;;;;;;;16.98;15.25;;;16.70;74.40;;;;;;5086532;27;20444;-80
2021/06/09 03:02:55;;;;;;;19.45;17.55;;;16.70;73.70;;;;;;5102206;27;20467;-84
2021/06/09 03:05:28;;;;;;;20.40;17.00;;;16.70;73.70;;;;;;5119504;27;20034;-81
2021/06/09 03:08:01;;;;;;;21.50;17.65;;;16.60;73.80;;;;;;5154223;27;20087;-81
2021/06/09 03:10:52;;;;;;;19.25;16.95;;;16.60;73.80;;;;;;5120254;27;20043;-80
2021/06/09 03:13:39;;;;;;;19.13;17.23;;;16.60;74.00;;;;;;5136600;27;20130;-81
2021/06/09 03:16:09;;;;;;;19.42;16.15;;;16.60;74.00;;;;;;5142385;27;20035;-80
2021/06/09 03:18:40;;;;;;;19.85;17.85;;;16.60;74.00;;;;;;5124757;27;20047;-85
2021/06/09 03:21:18;;;;;;;19.52;17.42;;;16.60;74.10;;;;;;5123806;27;20049;-81
2021/06/09 03:24:07;;;;;;;18.90;17.02;;;16.60;74.30;;;;;;5123508;27;20035;-81
2021/06/09 03:26:58;;;;;;;17.77;15.98;;;16.60;74.30;;;;;;5102253;27;20051;-80
2021/06/09 03:29:50;;;;;;;19.40;17.50;;;16.50;74.20;;;;;;5141336;27;20096;-80
2021/06/09 03:32:20;;;;;;;18.67;16.77;;;16.50;74.40;;;;;;5092828;27;20072;-80
2021/06/09 03:34:50;;;;;;;20.55;18.27;;;16.50;74.40;;;;;;5122419;27;20071;-80
2021/06/09 03:37:19;;;;;;;20.08;17.90;;;16.50;74.40;;;;;;5140088;27;20066;-80
2021/06/09 03:39:46;;;;;;;19.73;17.60;;;16.50;74.50;;;;;;5123031;27;20089;-79
2021/06/09 03:42:14;;;;;;;20.70;18.52;;;16.50;74.60;;;;;;5123575;27;20030;-81
2021/06/09 03:44:45;;;;;;;20.80;18.55;;;16.50;75.10;;;;;;5105493;27;20053;-82
2021/06/09 03:47:12;;;;;;;20.20;18.05;;;16.50;74.80;;;;;;5104653;27;20447;-80
2021/06/09 03:49:38;;;;;;;19.20;17.15;;;16.50;74.70;;;;;;5105480;27;20053;-85
2021/06/09 03:52:04;;;;;;;20.10;18.13;;;16.50;74.80;;;;;;5122053;27;20046;-80
2021/06/09 03:54:32;;;;;;;19.00;16.98;;;16.50;74.80;;;;;;5106315;27;20140;-79
2021/06/09 03:57:10;;;;;;;20.33;18.13;;;16.50;74.90;;;;;;5141578;27;20042;-79
2021/06/09 03:59:36;;;;;;;19.25;17.23;;;16.50;74.90;;;;;;5122604;27;20042;-80
2021/06/09 04:02:05;;;;;;;19.05;17.05;;;16.50;74.90;;;;;;5138902;27;20091;-79
2021/06/09 04:04:31;;;;;;;19.10;16.98;;;16.40;74.90;;;;;;5122958;27;20049;-80
2021/06/09 04:06:58;;;;;;;18.20;16.40;;;16.50;75.00;;;;;;5122082;27;20055;-79
2021/06/09 04:09:24;;;;;;;19.20;17.30;;;16.50;75.00;;;;;;5139339;27;20038;-79
2021/06/09 04:12:01;;;;;;;19.13;17.25;;;16.50;75.10;;;;;;5121470;27;20456;-80
2021/06/09 04:14:35;;;;;;;19.20;17.27;;;16.40;75.10;;;;;;5106718;27;20047;-79
2021/06/09 04:17:02;;;;;;;20.35;18.25;;;16.40;75.10;;;;;;5105578;27;20039;-79
2021/06/09 04:19:29;;;;;;;20.88;18.13;;;16.40;75.10;;;;;;5139819;27;20047;-80
2021/06/09 04:21:55;;;;;;;19.15;17.15;;;16.50;75.20;;;;;;5104993;27;20174;-80
2021/06/09 04:24:29;;;;;;;19.05;17.15;;;16.50;75.20;;;;;;5139259;27;20447;-79
2021/06/09 04:26:55;;;;;;;19.08;17.05;;;16.50;75.30;;;;;;5104795;27;20031;-80
2021/06/09 04:29:21;;;;;;;19.10;17.20;;;16.50;75.30;;;;;;5122257;27;20129;-80
2021/06/09 04:31:48;;;;;;;18.60;16.77;;;16.50;75.30;;;;;;5121259;27;20038;-79
2021/06/09 04:34:20;;;;;;;18.67;16.88;;;16.50;75.30;;;;;;5106781;27;20045;-80
2021/06/09 04:36:50;;;;;;;20.08;18.08;;;16.50;75.20;;;;;;5122337;27;20053;-85
2021/06/09 04:39:16;;;;;;;20.25;17.55;;;16.50;75.20;;;;;;5105477;27;20050;-80
2021/06/09 04:41:42;;;;;;;18.30;16.45;;;16.50;75.10;;;;;;5122040;27;20030;-82
2021/06/09 04:44:08;;;;;;;20.20;16.70;;;16.50;75.00;;;;;;5122233;27;20039;-80
2021/06/09 04:46:34;;;;;;;18.77;16.88;;;16.50;75.00;;;;;;5105313;27;20379;-80
2021/06/09 04:49:06;;;;;;;18.45;16.48;;;16.50;75.20;;;;;;5138740;27;20051;-80
2021/06/09 04:51:33;;;;;;;17.60;15.80;;;16.50;75.30;;;;;;5122819;27;20057;-80
2021/06/09 04:54:01;;;;;;;18.33;16.38;;;16.50;75.30;;;;;;5122036;27;20091;-80
2021/06/09 04:56:31;;;;;;;17.52;15.88;;;16.60;75.30;;;;;;5138719;27;20189;-81
2021/06/09 04:58:56;;;;;;;18.15;16.25;;;16.60;75.30;;;;;;5120047;27;20470;-79
2021/06/09 05:01:22;;;;;;;18.27;16.35;;;16.60;75.30;;;;;;5121971;27;20046;-80
2021/06/09 05:03:48;;;;;;;19.13;16.65;;;16.60;75.40;;;;;;5121664;27;20055;-84
2021/06/09 05:06:14;;;;;;;18.23;16.35;;;16.60;75.40;;;;;;5121590;27;20482;-80
2021/06/09 05:08:43;;;;;;;18.35;16.45;;;16.60;75.40;;;;;;5104636;27;20069;-80
2021/06/09 05:11:11;;;;;;;16.70;15.05;;;16.70;75.50;;;;;;5121824;27;20581;-80
2021/06/09 05:13:38;;;;;;;18.20;16.02;;;16.70;75.40;;;;;;5121932;27;20055;-80
2021/06/09 05:16:07;;;;;;;16.70;15.07;;;16.70;75.50;;;;;;5121495;27;20047;-82
2021/06/09 05:18:36;;;;;;;16.67;14.98;;;16.70;75.40;;;;;;5122171;27;20035;-81
2021/06/09 05:21:02;;;;;;;15.82;13.68;;;16.70;75.20;;;;;;5121153;27;20035;-80
2021/06/09 05:23:31;;;;;;;15.90;13.80;;;16.70;75.20;;;;;;5107700;27;20106;-80
2021/06/09 05:25:58;;;;;;;15.02;13.43;;;16.70;75.20;;;;;;5125686;27;20126;-81
2021/06/09 05:28:25;;;;;;;14.70;13.20;;;16.70;74.90;;;;;;5132309;27;20042;-80
2021/06/09 05:30:55;;;;;;;13.90;12.50;;;16.80;74.70;;;;;;5130249;27;20045;-85
2021/06/09 05:33:21;;;;;;;15.00;13.55;;;16.80;74.50;;;;;;5143153;27;20043;-80
2021/06/09 05:35:48;;;;;;;14.07;12.30;;;16.80;74.40;;;;;;5104919;27;20050;-81
2021/06/09 05:38:18;;;;;;;14.40;12.98;;;16.80;74.30;;;;;;5098363;27;20418;-80
2021/06/09 05:40:44;;;;;;;13.10;11.80;;;16.80;74.10;;;;;;5134074;27;20102;-82
2021/06/09 05:43:10;;;;;;;13.13;11.70;;;16.80;73.80;;;;;;5119057;27;20062;-82
2021/06/09 05:45:36;;;;;;;13.70;12.30;;;16.80;73.70;;;;;;5172755;27;20042;-81
2021/06/09 05:48:02;;;;;;;14.13;12.65;;;16.90;73.80;;;;;;5133876;27;20522;-81
2021/06/09 05:50:29;;;;;;;14.23;12.65;;;16.90;74.00;;;;;;5136151;27;20031;-82
2021/06/09 05:52:58;;;;;;;15.77;14.07;;;16.90;74.00;;;;;;5118159;27;20065;-84
2021/06/09 05:55:36;;;;;;;16.30;14.70;;;16.90;74.10;;;;;;5119830;27;20046;-81
2021/06/09 05:58:03;;;;;;;15.68;14.18;;;17.00;74.20;;;;;;5128364;27;20094;-81
2021/06/09 06:00:32;;;;;;;17.13;14.98;;;17.00;74.10;;;;;;5145024;27;20100;-84
2021/06/09 06:03:02;;;;;;;17.58;15.63;;;17.00;74.30;;;;;;5120161;27;20308;-79
2021/06/09 06:05:29;;;;;;;17.42;15.63;;;17.10;74.50;;;;;;5122651;27;20118;-82
2021/06/09 06:07:55;;;;;;;19.60;17.50;;;17.10;74.60;;;;;;5124639;27;20479;-81
2021/06/09 06:10:23;;;;;;;18.67;16.77;;;17.20;75.10;;;;;;5124823;27;20129;-84
2021/06/09 06:12:50;;;;;;;18.70;16.80;;;17.30;75.20;;;;;;5141660;27;20076;-83
2021/06/09 06:15:16;;;;;;;21.15;19.10;;;17.40;75.30;;;;;;5107240;27;20055;-82
2021/06/09 06:17:46;;;;;;;21.50;18.48;;;17.40;75.20;;;;;;5124485;27;20070;-79
2021/06/09 06:20:24;;;;;;;22.48;20.27;;;17.50;75.20;;;;;;5106635;27;20038;-78
2021/06/09 06:22:51;;;;;;;19.55;17.65;;;17.60;75.10;;;;;;5101514;27;20114;-79
2021/06/09 06:25:19;;;;;;;18.08;15.95;;;17.70;75.10;;;;;;5097736;27;20385;-82
2021/06/09 06:27:45;;;;;;;21.02;18.80;;;17.80;75.20;;;;;;5134161;27;20505;-81
2021/06/09 06:30:14;;;;;;;20.33;18.10;;;17.90;75.30;;;;;;5101415;27;20051;-80
2021/06/09 06:32:40;;;;;;;22.17;19.25;;;18.00;75.40;;;;;;5135447;27;20053;-83
2021/06/09 06:35:09;;;;;;;20.58;18.48;;;18.10;75.20;;;;;;5119627;27;20047;-79
2021/06/09 06:37:35;;;;;;;21.55;18.88;;;18.10;75.00;;;;;;5115665;27;20039;-81
2021/06/09 06:40:05;;;;;;;20.65;17.88;;;18.20;75.00;;;;;;5105886;27;20119;-80
2021/06/09 06:42:31;;;;;;;20.70;18.65;;;18.30;74.90;;;;;;5123761;27;20027;-80
2021/06/09 06:44:57;;;;;;;19.08;17.05;;;18.40;74.70;;;;;;5139124;27;20031;-79
2021/06/09 06:47:25;;;;;;;20.80;18.60;;;18.50;74.50;;;;;;5105441;27;20035;-83
2021/06/09 06:49:51;;;;;;;19.85;15.75;;;18.50;74.50;;;;;;5104948;27;20451;-77
2021/06/09 06:52:17;;;;;;;23.02;19.95;;;18.60;74.50;;;;;;5120991;27;20183;-78
2021/06/09 06:54:43;;;;;;;24.40;19.83;;;18.70;74.20;;;;;;5120938;27;20047;-79
2021/06/09 06:57:13;;;;;;;22.33;20.13;;;18.80;74.00;;;;;;5118723;27;20054;-78
2021/06/09 06:59:39;;;;;;;23.23;20.83;;;18.80;73.80;;;;;;5087671;27;20043;-82
2021/06/09 07:02:06;;;;;;;23.67;21.27;;;18.90;73.70;;;;;;5141329;27;20035;-81
2021/06/09 07:04:32;;;;;;;22.27;19.90;;;18.90;73.70;;;;;;5129373;27;20159;-80
2021/06/09 07:06:58;;;;;;;20.90;18.52;;;19.00;73.70;;;;;;5146141;27;20053;-80
2021/06/09 07:09:25;;;;;;;23.88;19.55;;;19.10;73.50;;;;;;5145565;27;20572;-86
2021/06/09 07:11:55;;;;;;;19.08;17.02;;;19.10;73.50;;;;;;5163215;27;20034;-84
2021/06/09 07:14:27;;;;;;;21.45;19.02;;;19.20;73.50;;;;;;5126881;27;20433;-83
2021/06/09 07:16:55;;;;;;;22.38;19.35;;;19.30;73.70;;;;;;5148550;27;20039;-84
2021/06/09 07:19:21;;;;;;;22.50;19.13;;;19.30;73.50;;;;;;5129270;27;20063;-82
2021/06/09 07:21:47;;;;;;;22.08;19.55;;;19.40;73.50;;;;;;5127355;27;20042;-83
2021/06/09 07:24:13;;;;;;;24.15;21.55;;;19.50;73.50;;;;;;5143809;27;20039;-83
2021/06/09 07:26:42;;;;;;;23.38;19.77;;;19.50;73.40;;;;;;5110466;27;20038;-84
2021/06/09 07:29:12;;;;;;;19.13;17.08;;;19.60;73.00;;;;;;5128689;27;20050;-84
2021/06/09 07:31:39;;;;;;;19.73;17.63;;;19.70;72.60;;;;;;5146589;27;20050;-82
2021/06/09 07:34:06;;;;;;;22.92;20.55;;;19.80;72.50;;;;;;5116514;27;20074;-81
2021/06/09 07:36:53;;;;;;;21.45;19.15;;;19.80;72.40;;;;;;5151431;27;20547;-84
2021/06/09 07:39:26;;;;;;;22.08;19.85;;;19.90;72.10;;;;;;5149547;27;20108;-84
2021/06/09 07:41:53;;;;;;;22.50;20.20;;;20.00;72.70;;;;;;5159517;27;20035;-84
2021/06/09 07:44:22;;;;;;;25.08;22.58;;;20.00;72.40;;;;;;5125030;27;20030;-84
2021/06/09 07:47:09;;;;;;;24.42;22.02;;;20.10;72.30;;;;;;5143858;27;20066;-83
2021/06/09 07:49:35;;;;;;;23.98;21.15;;;20.10;72.00;;;;;;5152358;27;20042;-77
2021/06/09 07:52:01;;;;;;;24.67;21.80;;;20.20;71.70;;;;;;5153012;27;20050;-81
2021/06/09 07:54:28;;;;;;;25.40;22.90;;;20.30;71.80;;;;;;5131087;27;20039;-84
2021/06/09 07:56:55;;;;;;;23.17;18.00;;;20.30;71.80;;;;;;5101809;27;20073;-84
2021/06/09 07:59:21;;;;;;;26.17;21.92;;;20.40;71.40;;;;;;5161958;27;20039;-81
2021/06/09 08:01:51;;;;;;;27.67;24.90;;;20.40;71.00;;;;;;5126023;27;20443;-86
2021/06/09 08:04:17;;;;;;;30.40;27.30;;;20.40;70.80;;;;;;5125895;27;20039;-85
2021/06/09 08:06:44;;;;;;;26.45;23.75;;;20.50;70.60;;;;;;5126568;27;20416;-83
2021/06/09 08:09:10;;;;;;;29.75;25.88;;;20.60;70.20;;;;;;5093606;27;20050;-85
2021/06/09 08:11:36;;;;;;;26.92;24.10;;;20.60;69.90;;;;;;5127106;27;20046;-82
2021/06/09 08:14:03;;;;;;;26.17;23.50;;;20.60;69.70;;;;;;5126522;27;20038;-84
2021/06/09 08:16:34;;;;;;;29.92;25.15;;;20.70;69.60;;;;;;5109032;27;20063;-85
2021/06/09 08:19:03;;;;;;;28.80;25.83;;;20.80;69.40;;;;;;5126874;27;20094;-87
2021/06/09 08:21:30;;;;;;;29.05;26.15;;;20.80;69.50;;;;;;5109274;27;20035;-89
2021/06/09 08:23:59;;;;;;;29.20;26.45;;;20.90;70.00;;;;;;5154870;27;20105;-91
2021/06/09 08:26:28;;;;;;;;;;;20.90;69.40;;;;;;5142517;27;20046;-87
2021/06/09 08:28:55;;;;;;;29.77;26.67;;;21.00;68.20;;;;;;5153213;27;20339;-88
2021/06/09 08:31:24;;;;;;;23.83;21.52;;;21.10;68.70;;;;;;5117311;27;20031;-87
2021/06/09 08:33:50;;;;;;;24.90;22.40;;;21.10;68.30;;;;;;5138026;27;20064;-91
2021/06/09 08:36:19;;;;;;;27.23;24.52;;;21.10;67.80;;;;;;5137752;27;20042;-84
2021/06/09 08:38:57;;;;;;;24.38;21.85;;;21.20;67.20;;;;;;5113387;27;20065;-87
2021/06/09 08:41:28;;;;;;;27.50;24.90;;;21.30;67.00;;;;;;5125032;27;20063;-87
2021/06/09 08:43:56;;;;;;;29.17;26.23;;;21.30;66.90;;;;;;5127131;27;20087;-87
2021/06/09 08:46:25;;;;;;;26.85;24.25;;;21.40;66.40;;;;;;5125660;27;20038;-88
2021/06/09 08:48:53;;;;;;;26.05;23.50;;;21.50;66.20;;;;;;5109370;27;20079;-88
2021/06/09 08:51:19;;;;;;;29.80;26.80;;;21.50;65.90;;;;;;5125101;27;20043;-82
2021/06/09 08:53:49;;;;;;;27.38;24.45;;;21.60;66.20;;;;;;5142923;27;20047;-89
2021/06/09 08:56:16;;;;;;;26.98;24.33;;;21.70;66.20;;;;;;5143934;27;20042;-87
2021/06/09 08:58:50;;;;;;;28.50;25.88;;;21.70;65.90;;;;;;5110374;27;20057;-84
2021/06/09 09:01:17;;;;;;;31.17;28.20;;;21.80;65.60;;;;;;5108675;27;20437;-82
2021/06/09 09:03:45;;;;;;;26.45;23.67;;;21.90;65.20;;;;;;5121680;28;20047;-88
2021/06/09 09:06:13;;;;;;;25.85;23.25;;;21.90;65.00;;;;;;5122572;28;20057;-79
2021/06/09 09:08:40;;;;;;;22.42;20.13;;;22.00;64.50;;;;;;5120731;28;20027;-80
2021/06/09 09:11:06;;;;;;;23.25;20.45;;;22.20;64.60;;;;;;5121289;28;20058;-84
2021/06/09 09:13:33;;;;;;;24.63;22.08;;;22.30;64.60;;;;;;5120649;28;20043;-83
2021/06/09 09:16:01;;;;;;;22.58;20.33;;;22.40;64.40;;;;;;5138600;28;20046;-85
2021/06/09 09:18:41;;;;;;;24.92;22.45;;;22.60;64.20;;;;;;5137598;28;20066;-85
2021/06/09 09:21:07;;;;;;;22.98;18.92;;;22.70;63.30;;;;;;5116773;28;20083;-83
2021/06/09 09:23:35;;;;;;;20.55;18.48;;;22.70;63.10;;;;;;5104363;28;20043;-86
2021/06/09 09:26:31;;;;;;;21.25;19.05;;;22.80;63.00;;;;;;5138247;28;20046;-86
2021/06/09 09:29:17;;;;;;;21.52;19.23;;;22.90;62.30;;;;;;5103431;28;20051;-86
2021/06/09 09:31:48;;;;;;;21.45;19.23;;;23.00;62.10;;;;;;5086021;28;20049;-86
2021/06/09 09:34:31;;;;;;;23.60;21.30;;;23.10;62.20;;;;;;5138320;28;20567;-81
2021/06/09 09:37:09;;;;;;;20.73;18.80;;;23.10;61.00;;;;;;5105188;28;20079;-79
2021/06/09 09:39:36;;;;;;;20.85;18.85;;;23.20;61.00;;;;;;5104464;28;20035;-79
2021/06/09 09:42:30;;;;;;;19.83;17.92;;;23.30;60.70;;;;;;5138102;28;20039;-80
2021/06/09 09:45:24;;;;;;;20.20;18.20;;;23.40;60.00;;;;;;5121209;28;20059;-80
2021/06/09 09:48:16;;;;;;;18.90;17.10;;;23.60;59.70;;;;;;5123584;28;20070;-81
2021/06/09 09:50:46;;;;;;;21.52;19.35;;;23.80;59.70;;;;;;5104163;28;20051;-81
2021/06/09 09:53:23;;;;;;;19.42;17.60;;;23.80;59.50;;;;;;5120699;28;20035;-79
2021/06/09 09:56:08;;;;;;;21.95;19.88;;;23.90;59.00;;;;;;5106774;28;20434;-81
2021/06/09 09:58:52;;;;;;;22.13;20.08;;;24.10;58.90;;;;;;5137001;28;20054;-81
2021/06/09 10:01:23;;;;;;;22.45;20.25;;;24.20;59.10;;;;;;5120388;28;20047;-81
2021/06/09 10:03:53;;;;;;;24.42;22.02;;;24.30;58.80;;;;;;5103141;28;20589;-81
2021/06/09 10:07:04;;;;;;;22.38;20.23;;;24.30;58.40;;;;;;5138055;28;20127;-84
2021/06/09 10:09:37;;;;;;;25.52;19.80;;;24.50;58.40;;;;;;5088730;28;20052;-80
2021/06/09 10:12:22;;;;;;;21.58;19.58;;;24.60;57.90;;;;;;5086146;28;20158;-84
2021/06/09 10:14:50;;;;;;;19.65;17.80;;;24.70;57.70;;;;;;5108834;27;20042;-85
2021/06/09 10:17:25;;;;;;;23.70;21.40;;;24.80;57.70;;;;;;5103822;28;20040;-83
2021/06/09 10:19:59;;;;;;;22.48;20.38;;;25.00;56.60;;;;;;5090150;28;20104;-84
2021/06/09 10:22:32;;;;;;;22.77;20.52;;;25.10;56.40;;;;;;5094655;28;20044;-86
2021/06/09 10:25:12;;;;;;;23.17;20.95;;;25.20;56.20;;;;;;5090770;28;20093;-88
2021/06/09 10:27:47;;;;;;;20.65;18.75;;;25.30;55.10;;;;;;5087664;28;20147;-86
2021/06/09 10:30:16;;;;;;;23.75;21.58;;;25.40;55.50;;;;;;5106379;28;20108;-83
2021/06/09 10:32:45;;;;;;;21.98;19.88;;;25.40;54.60;;;;;;5121368;28;20042;-85
2021/06/09 10:35:11;;;;;;;26.20;23.80;;;25.50;54.80;;;;;;5104054;28;20043;-86
2021/06/09 10:37:40;;;;;;;27.00;24.20;;;25.60;54.40;;;;;;5104545;28;20078;-89
2021/06/09 10:40:06;;;;;;;24.02;21.92;;;25.50;54.00;;;;;;5087875;28;20052;-87
2021/06/09 10:42:32;;;;;;;23.83;21.73;;;25.50;54.00;;;;;;5087137;28;20099;-85
2021/06/09 10:44:59;;;;;;;25.17;23.00;;;25.70;54.10;;;;;;5086951;28;20040;-86
2021/06/09 10:47:34;;;;;;;23.60;21.25;;;25.80;54.10;;;;;;5070727;28;20345;-86
2021/06/09 10:50:00;;;;;;;23.25;20.85;;;26.00;54.30;;;;;;5104219;28;20078;-84
2021/06/09 10:52:26;;;;;;;23.88;21.77;;;26.20;53.70;;;;;;5120773;28;20184;-83
2021/06/09 10:54:53;;;;;;;23.50;21.50;;;26.40;53.30;;;;;;5089289;27;20043;-87
2021/06/09 10:57:19;;;;;;;22.85;20.77;;;26.50;52.30;;;;;;5106584;27;20554;-85
2021/06/09 10:59:45;;;;;;;20.75;18.95;;;26.70;51.60;;;;;;5105557;27;20066;-82
2021/06/09 11:02:31;;;;;;;22.33;20.38;;;26.80;51.60;;;;;;5105859;27;20498;-85
2021/06/09 11:05:02;;;;;;;23.77;21.58;;;26.90;51.30;;;;;;5097255;27;20057;-83
2021/06/09 11:07:39;;;;;;;24.63;22.40;;;27.10;51.50;;;;;;5110163;27;20049;-83
2021/06/09 11:10:17;;;;;;;23.50;21.25;;;27.20;50.80;;;;;;5116816;27;20123;-83
2021/06/09 11:12:49;;;;;;;21.02;19.17;;;27.30;50.80;;;;;;5160934;27;20047;-86
2021/06/09 11:15:19;;;;;;;24.88;22.75;;;27.50;50.50;;;;;;5128150;27;20394;-84
2021/06/09 11:18:04;;;;;;;24.15;21.95;;;27.70;49.90;;;;;;5127053;27;20039;-82
2021/06/09 11:20:37;;;;;;;24.58;22.33;;;27.80;49.40;;;;;;5129137;27;20042;-81
2021/06/09 11:23:04;;;;;;;22.73;20.15;;;27.80;49.00;;;;;;5115107;27;20511;-83
2021/06/09 11:25:43;;;;;;;21.67;19.80;;;27.70;49.30;;;;;;5164296;27;20038;-81
2021/06/09 11:28:10;;;;;;;23.10;20.92;;;27.60;49.60;;;;;;5161001;27;20042;-84
2021/06/09 11:30:51;;;;;;;22.23;20.33;;;27.40;49.50;;;;;;5152094;27;20045;-83
2021/06/09 11:33:53;;;;;;;20.42;18.52;;;27.30;49.20;;;;;;5154188;27;20066;-81
2021/06/09 11:36:19;;;;;;;22.17;20.15;;;27.20;49.80;;;;;;5137523;27;20043;-86
2021/06/09 11:38:49;;;;;;;23.17;21.17;;;27.10;49.90;;;;;;5157314;27;20119;-83
2021/06/09 11:41:37;;;;;;;22.35;20.40;;;27.10;49.40;;;;;;5173219;27;20034;-82
2021/06/09 11:44:03;;;;;;;22.52;20.52;;;27.20;49.30;;;;;;5153755;27;20038;-84
2021/06/09 11:46:36;;;;;;;21.65;19.70;;;27.30;49.40;;;;;;5125782;27;20049;-83
2021/06/09 11:49:07;;;;;;;19.00;17.42;;;27.50;49.00;;;;;;5126211;27;20050;-84
2021/06/09 11:51:40;;;;;;;20.70;18.65;;;27.70;48.80;;;;;;5127532;27;20049;-83
2021/06/09 11:54:22;;;;;;;22.55;20.65;;;27.90;48.80;;;;;;5126540;27;20467;-83
2021/06/09 11:56:55;;;;;;;23.50;21.23;;;28.10;48.40;;;;;;5126783;27;20533;-86
2021/06/09 11:59:30;;;;;;;20.25;18.55;;;28.30;48.00;;;;;;5143888;27;20090;-87
2021/06/09 12:01:59;;;;;;;22.77;20.83;;;28.50;47.40;;;;;;5125892;27;20039;-83
2021/06/09 12:04:36;;;;;;;22.08;20.15;;;28.70;46.70;;;;;;5126106;27;20145;-82
2021/06/09 12:07:09;;;;;;;24.08;21.85;;;28.60;46.50;;;;;;5125365;27;20103;-83
2021/06/09 12:09:41;;;;;;;21.13;19.33;;;28.60;46.50;;;;;;5142671;27;20164;-83
2021/06/09 12:12:10;;;;;;;;;;;28.70;46.30;;;;;;5143545;27;20043;-85
2021/06/09 12:14:38;;;;;;;22.83;20.83;;;28.70;47.00;;;;;;5142529;27;19940;-85
2021/06/09 12:17:14;;;;;;;22.23;20.33;;;28.60;46.30;;;;;;5124976;27;20104;-85
2021/06/09 12:19:44;;;;;;;20.13;18.10;;;28.70;46.30;;;;;;5142281;27;20066;-88
2021/06/09 12:22:18;;;;;;;24.23;22.13;;;28.70;46.40;;;;;;5125964;27;20043;-83
2021/06/09 12:25:07;;;;;;;24.95;22.73;;;28.60;46.30;;;;;;5148954;27;20283;-82
2021/06/09 12:27:34;;;;;;;20.30;18.63;;;28.60;46.30;;;;;;5118854;27;20043;-86
2021/06/09 12:30:08;;;;;;;24.27;22.17;;;28.70;46.30;;;;;;5117400;27;20054;-83
2021/06/09 12:32:37;;;;;;;19.33;17.63;;;28.90;46.30;;;;;;5116026;27;20043;-84
2021/06/09 12:35:11;;;;;;;23.00;21.08;;;29.20;46.10;;;;;;5160376;27;20043;-83
2021/06/09 12:37:38;;;;;;;23.73;21.63;;;29.30;45.70;;;;;;5161544;27;20388;-83
2021/06/09 12:40:18;;;;;;;24.75;22.73;;;29.20;45.30;;;;;;5150790;27;20046;-84
2021/06/09 12:42:49;;;;;;;22.35;20.55;;;29.10;45.50;;;;;;5124111;27;20103;-84
2021/06/09 12:45:16;;;;;;;20.88;18.92;;;29.20;45.20;;;;;;5142756;27;20039;-86